Time;durP1;ratioP1;P1;durP2;ratioP2;P2;SDS_P1;SDS_P2;PMS_P1;PMS_P2;Temp;Humidity;BMP_temperature;BMP_pressure;BME280_temperature;BME280_humidity;BME280_pressure;Samples;Min_cycle;Max_cycle;Signal;HPM_P1;HPM_P2
2022/06/21 00:00:01;;;;;;;9.20;8.60;;;;;;;17.40;59.41;99810.00;5011980;28;97903;-79
2022/06/21 00:02:26;;;;;;;10.10;9.20;;;;;;;17.46;59.13;99833.44;5029868;28;98528;-78
2022/06/21 00:04:53;;;;;;;9.05;8.43;;;;;;;17.45;59.50;99822.94;4995582;28;97139;-78
2022/06/21 00:07:22;;;;;;;9.30;8.40;;;;;;;17.48;59.83;99847.44;4994401;28;96802;-78
2022/06/21 00:09:48;;;;;;;9.10;8.40;;;;;;;17.47;59.56;99848.41;5010266;28;97422;-78
2022/06/21 00:12:13;;;;;;;9.02;8.43;;;;;;;17.42;59.94;99842.56;5013145;28;97810;-78
2022/06/21 00:14:40;;;;;;;9.70;8.98;;;;;;;17.48;59.55;99838.63;5011184;28;96904;-79
2022/06/21 00:17:10;;;;;;;9.50;8.80;;;;;;;17.36;59.60;99829.72;5029732;28;97245;-78
2022/06/21 00:19:37;;;;;;;9.48;8.77;;;;;;;17.38;59.21;99843.75;4995477;28;101887;-79
2022/06/21 00:22:03;;;;;;;10.23;9.30;;;;;;;17.39;59.41;99837.47;5013956;28;97935;-78
2022/06/21 00:24:28;;;;;;;9.68;8.70;;;;;;;17.25;59.29;99803.09;5012353;28;98189;-78
2022/06/21 00:26:54;;;;;;;9.23;8.52;;;;;;;17.37;59.17;99823.50;5015768;28;96941;-78
2022/06/21 00:29:19;;;;;;;9.80;9.00;;;;;;;17.36;59.02;99824.44;4997943;28;99713;-78
2022/06/21 00:31:47;;;;;;;9.55;8.68;;;;;;;17.33;59.34;99822.84;5012278;28;101224;-78
2022/06/21 00:34:17;;;;;;;11.25;8.88;;;;;;;17.34;59.17;99826.34;5012220;28;97299;-78
2022/06/21 00:36:43;;;;;;;9.95;8.57;;;;;;;17.19;59.26;99807.91;5019565;28;97132;-78
2022/06/21 00:39:11;;;;;;;9.18;8.40;;;;;;;17.25;59.05;99824.31;5015526;28;102029;-79
2022/06/21 00:41:50;;;;;;;9.27;8.52;;;;;;;17.02;59.01;99791.47;5013920;28;99004;-78
2022/06/21 00:44:23;;;;;;;9.63;8.82;;;;;;;17.15;59.05;99819.66;5014854;28;97067;-78
2022/06/21 00:46:59;;;;;;;8.50;7.82;;;;;;;17.02;58.83;99802.91;5015034;28;96818;-78
2022/06/21 00:49:28;;;;;;;9.07;8.27;;;;;;;17.11;58.84;99828.78;5031505;28;98541;-78
2022/06/21 00:51:57;;;;;;;8.77;8.15;;;;;;;17.09;59.13;99816.59;5014303;28;101497;-78
2022/06/21 00:54:27;;;;;;;8.65;7.93;;;;;;;17.09;59.14;99821.91;4999706;28;97122;-78
2022/06/21 00:57:01;;;;;;;8.90;8.20;;;;;;;17.06;58.92;99814.16;5015183;28;98310;-78
2022/06/21 00:59:30;;;;;;;8.80;8.18;;;;;;;17.02;58.88;99808.22;4995981;28;101314;-78
2022/06/21 01:01:59;;;;;;;8.73;8.02;;;;;;;17.03;58.77;99814.38;5017037;28;98306;-76
2022/06/21 01:04:45;;;;;;;8.60;8.00;;;;;;;16.90;59.29;99799.31;5011743;28;97175;-76
2022/06/21 01:07:12;;;;;;;10.70;8.13;;;;;;;16.91;59.32;99814.25;5009994;28;96875;-78
2022/06/21 01:10:03;;;;;;;9.15;8.45;;;;;;;16.87;59.07;99804.81;5015141;28;99712;-79
2022/06/21 01:12:36;;;;;;;9.05;8.27;;;;;;;16.87;59.59;99812.78;5016456;28;98381;-76
2022/06/21 01:15:09;;;;;;;8.93;8.27;;;;;;;16.86;59.25;99819.00;5031427;28;96836;-77
2022/06/21 01:17:34;;;;;;;9.55;8.80;;;;;;;16.89;59.36;99812.66;5011888;28;96985;-79
2022/06/21 01:20:04;;;;;;;9.40;8.70;;;;;;;16.84;59.18;99812.97;4990820;28;101058;-76
2022/06/21 01:22:57;;;;;;;9.98;8.90;;;;;;;16.83;59.48;99821.03;5025829;28;98525;-78
2022/06/21 01:25:33;;;;;;;10.25;8.63;;;;;;;16.84;59.54;99812.97;5023146;28;97249;-76
2022/06/21 01:27:59;;;;;;;9.50;8.80;;;;;;;16.80;59.71;99816.78;4998044;28;97247;-79
2022/06/21 01:30:28;;;;;;;9.18;8.43;;;;;;;16.69;59.66;99784.81;5014910;28;97545;-77
2022/06/21 01:32:56;;;;;;;9.38;8.55;;;;;;;16.81;59.53;99809.66;5010940;28;101118;-77
2022/06/21 01:35:35;;;;;;;9.90;9.10;;;;;;;16.87;59.60;99811.91;5013644;28;96831;-76
2022/06/21 01:38:02;;;;;;;9.30;8.63;;;;;;;16.85;59.54;99812.03;5009147;28;97271;-76
2022/06/21 01:40:31;;;;;;;10.50;8.80;;;;;;;16.86;59.17;99821.66;5015147;28;98175;-76
2022/06/21 01:43:03;;;;;;;9.25;8.38;;;;;;;16.82;59.00;99814.88;5015260;28;101444;-77
2022/06/21 01:45:34;;;;;;;9.20;8.32;;;;;;;16.81;58.60;99821.13;5010542;28;97272;-76
2022/06/21 01:48:16;;;;;;;9.30;8.50;;;;;;;16.69;58.72;99792.75;4997746;28;97330;-76
2022/06/21 01:50:43;;;;;;;8.30;7.57;;;;;;;16.78;58.98;99817.81;4990334;28;101481;-77
2022/06/21 01:53:09;;;;;;;8.70;8.00;;;;;;;16.76;58.99;99823.25;5032019;28;97445;-76
2022/06/21 01:55:47;;;;;;;10.40;8.38;;;;;;;16.64;59.19;99813.41;4995024;28;97364;-76
2022/06/21 01:58:18;;;;;;;8.80;7.78;;;;;;;16.70;59.38;99829.78;4994846;28;97405;-77
2022/06/21 02:00:51;;;;;;;8.93;8.20;;;;;;;16.65;59.33;99828.38;5013011;28;101796;-77
2022/06/21 02:03:19;;;;;;;8.98;8.13;;;;;;;16.65;59.40;99831.88;5031521;28;97734;-76
2022/06/21 02:05:50;;;;;;;10.77;8.32;;;;;;;16.60;59.53;99831.34;4996603;28;96751;-77
2022/06/21 02:08:18;;;;;;;9.00;8.10;;;;;;;16.59;59.46;99832.28;5009735;28;97498;-76
2022/06/21 02:10:48;;;;;;;8.68;8.07;;;;;;;16.57;59.33;99834.19;5006588;28;101574;-77
2022/06/21 02:13:48;;;;;;;9.88;8.85;;;;;;;16.48;59.49;99816.25;5014092;28;101773;-76
2022/06/21 02:16:20;;;;;;;9.60;8.80;;;;;;;16.38;59.43;99818.69;5026000;28;96787;-76
2022/06/21 02:18:53;;;;;;;11.48;9.27;;;;;;;16.53;59.31;99846.78;4996386;28;97409;-76
2022/06/21 02:21:48;;;;;;;9.80;8.80;;;;;;;16.49;59.52;99847.09;4997632;28;101929;-76
2022/06/21 02:24:15;;;;;;;11.73;10.00;;;;;;;16.45;59.63;99842.94;5005963;28;97883;-76
2022/06/21 02:26:41;;;;;;;10.13;9.32;;;;;;;16.40;59.48;99831.81;5030869;28;97043;-77
2022/06/21 02:29:09;;;;;;;9.85;9.00;;;;;;;16.39;59.83;99838.06;4996784;28;96891;-76
2022/06/21 02:31:35;;;;;;;9.40;8.50;;;;;;;16.43;59.81;99842.19;4995266;28;101130;-76
2022/06/21 02:34:04;;;;;;;9.20;8.30;;;;;;;16.33;59.87;99841.13;5030184;28;97481;-77
2022/06/21 02:36:34;;;;;;;9.10;8.43;;;;;;;16.34;59.88;99830.41;5014491;28;96904;-76
2022/06/21 02:39:05;;;;;;;12.43;9.10;;;;;;;16.21;59.92;99816.28;5030121;28;97358;-77
2022/06/21 02:41:40;;;;;;;9.18;8.35;;;;;;;16.27;60.24;99831.78;5009905;28;101598;-76
2022/06/21 02:44:15;;;;;;;9.80;8.75;;;;;;;16.29;60.18;99838.66;5011218;28;101340;-77
2022/06/21 02:46:47;;;;;;;11.75;8.77;;;;;;;16.23;60.31;99836.44;4993720;28;96867;-76
2022/06/21 02:49:14;;;;;;;;;;;;;;;16.25;60.19;99833.66;5013755;28;96999;-77
2022/06/21 02:51:50;;;;;;;12.45;9.50;;;;;;;16.24;60.04;99837.28;4996701;28;100355;-77
2022/06/21 02:54:52;;;;;;;9.73;8.85;;;;;;;16.18;60.56;99833.22;5030713;28;98306;-76
2022/06/21 02:57:37;;;;;;;;;;;;;;;16.16;60.54;99843.06;4982949;28;97931;-77
2022/06/21 03:00:05;;;;;;;9.57;8.88;;;;;;;16.17;60.63;99841.25;5026873;28;97420;-76
2022/06/21 03:02:32;;;;;;;10.13;9.20;;;;;;;16.16;60.24;99835.09;4992229;28;102274;-76
2022/06/21 03:05:04;;;;;;;10.32;9.48;;;;;;;16.17;60.56;99842.09;5024961;28;101028;-77
2022/06/21 03:07:39;;;;;;;12.07;10.20;;;;;;;16.16;60.55;99843.06;5013359;28;97972;-77
2022/06/21 03:10:07;;;;;;;11.52;9.07;;;;;;;16.15;60.65;99846.66;5030751;28;96830;-76
2022/06/21 03:12:33;;;;;;;9.70;8.90;;;;;;;16.07;60.54;99836.56;4994119;28;101813;-76
2022/06/21 03:15:07;;;;;;;9.32;8.63;;;;;;;16.15;60.41;99844.00;5025747;28;97641;-76
2022/06/21 03:17:47;;;;;;;9.50;8.80;;;;;;;16.22;60.24;99837.34;4994789;28;97228;-77
2022/06/21 03:20:16;;;;;;;12.88;11.60;;;;;;;16.26;60.09;99833.56;5011388;28;97078;-77
2022/06/21 03:22:42;;;;;;;10.43;9.38;;;;;;;16.35;nan;99833.91;4981672;28;100623;-77
2022/06/21 03:25:18;;;;;;;10.38;8.95;;;;;;;16.38;59.93;99837.22;5020655;28;101987;-77
2022/06/21 03:27:56;;;;;;;10.70;9.60;;;;;;;16.35;59.48;99826.81;5014611;28;97178;-77
2022/06/21 03:30:27;;;;;;;9.45;8.63;;;;;;;16.52;59.53;99844.22;5002267;28;96859;-76
2022/06/21 03:32:53;;;;;;;9.02;8.35;;;;;;;16.49;59.58;99840.00;5007897;28;101625;-77
2022/06/21 03:35:19;;;;;;;9.93;9.02;;;;;;;16.61;59.18;99841.00;5017096;28;97773;-77
2022/06/21 03:37:45;;;;;;;11.75;9.77;;;;;;;16.64;59.13;99837.25;4993558;28;96875;-78
2022/06/21 03:43:08;;;;;;;10.30;8.98;;;;;;;16.70;58.67;99840.38;5014056;28;97557;-77
2022/06/21 03:45:37;;;;;;;9.27;8.57;;;;;;;16.78;58.59;99846.97;4985323;28;101309;-77
2022/06/21 03:48:26;;;;;;;10.10;9.18;;;;;;;16.86;58.25;99855.28;4982925;28;97821;-77
2022/06/21 03:50:55;;;;;;;10.18;9.45;;;;;;;16.89;57.93;99847.13;4996433;28;97294;-77
2022/06/21 03:53:25;;;;;;;9.85;9.13;;;;;;;16.89;58.11;99852.41;5013928;28;97892;-77
2022/06/21 03:55:51;;;;;;;10.77;8.77;;;;;;;16.95;57.75;99852.84;4993796;28;101705;-77
2022/06/21 03:58:29;;;;;;;9.85;9.00;;;;;;;16.95;58.08;99847.53;5012020;28;96816;-77
2022/06/21 04:01:10;;;;;;;9.88;8.93;;;;;;;17.00;58.04;99860.50;4994888;28;96853;-76
2022/06/21 04:03:50;;;;;;;10.97;10.10;;;;;;;17.05;57.60;99861.03;5013924;28;98622;-77
2022/06/21 04:06:22;;;;;;;9.68;8.93;;;;;;;17.08;57.26;99860.81;4994991;28;101385;-77
2022/06/21 04:09:17;;;;;;;9.77;8.93;;;;;;;17.04;57.17;99850.53;5009174;28;97196;-77
2022/06/21 04:11:58;;;;;;;10.38;9.35;;;;;;;17.13;57.06;99856.06;5030238;28;97446;-79
2022/06/21 04:14:58;;;;;;;9.77;8.98;;;;;;;17.11;56.61;99850.00;4994491;28;101619;-80
2022/06/21 04:17:36;;;;;;;10.32;9.70;;;;;;;17.17;56.85;99856.69;5012400;28;101115;-77
2022/06/21 04:20:07;;;;;;;11.00;10.10;;;;;;;17.15;56.65;99846.19;4999692;28;97152;-77
2022/06/21 04:22:51;;;;;;;10.38;9.77;;;;;;;17.34;56.27;99866.16;5008723;28;97142;-77
2022/06/21 04:25:19;;;;;;;11.25;10.00;;;;;;;17.32;56.66;99874.19;5030605;28;97370;-78
2022/06/21 04:27:49;;;;;;;10.27;9.45;;;;;;;17.38;56.17;99868.47;5028544;28;101484;-77
2022/06/21 04:30:30;;;;;;;12.38;9.35;;;;;;;17.39;56.32;99862.22;4995087;28;97228;-79
2022/06/21 04:32:59;;;;;;;10.77;9.50;;;;;;;17.47;56.62;99871.44;5028754;28;97033;-76
2022/06/21 04:35:36;;;;;;;11.15;10.27;;;;;;;17.48;56.03;99850.09;4994752;28;101009;-77
2022/06/21 04:38:06;;;;;;;10.40;9.50;;;;;;;17.41;56.32;99835.56;4992986;28;100494;-77
2022/06/21 04:40:36;;;;;;;10.48;9.73;;;;;;;17.62;56.06;99854.44;5011812;28;96903;-77
2022/06/21 04:43:29;;;;;;;9.93;9.10;;;;;;;17.80;55.45;99873.53;4986138;28;97319;-77
2022/06/21 04:46:04;;;;;;;10.38;9.68;;;;;;;17.72;55.38;99875.88;5018700;28;97940;-77
2022/06/21 04:48:54;;;;;;;10.18;9.48;;;;;;;17.79;55.48;99874.50;4988584;28;101271;-77
2022/06/21 04:51:26;;;;;;;10.50;9.60;;;;;;;17.84;54.92;99865.25;5017309;28;97152;-78
2022/06/21 04:54:02;;;;;;;10.82;9.52;;;;;;;17.85;54.94;99871.41;5013922;28;96871;-78
2022/06/21 04:56:44;;;;;;;10.57;9.63;;;;;;;17.77;54.99;99871.94;4992684;28;101523;-77
2022/06/21 04:59:24;;;;;;;13.60;12.25;;;;;;;17.93;54.79;99894.78;5003348;28;101718;-78
2022/06/21 05:01:50;;;;;;;9.82;9.23;;;;;;;18.01;54.68;99880.00;5004578;28;97684;-78
2022/06/21 05:04:25;;;;;;;12.07;9.35;;;;;;;18.01;54.74;99884.47;5006900;28;96955;-78
2022/06/21 05:06:52;;;;;;;12.18;9.30;;;;;;;18.00;55.04;99866.81;5029062;27;97600;-79
2022/06/21 05:09:20;;;;;;;10.35;9.45;;;;;;;18.16;54.17;99874.53;5011633;28;100848;-82
2022/06/21 05:11:46;;;;;;;11.63;9.30;;;;;;;18.23;54.30;99873.97;5006285;28;100109;-79
2022/06/21 05:14:21;;;;;;;11.82;9.85;;;;;;;18.26;54.33;99883.50;5011651;28;97069;-78
2022/06/21 05:16:47;;;;;;;9.45;8.75;;;;;;;18.33;54.05;99869.69;5027287;28;97435;-79
2022/06/21 05:19:32;;;;;;;10.05;9.15;;;;;;;18.39;53.63;99851.59;5026100;28;97497;-78
2022/06/21 05:22:09;;;;;;;9.80;9.00;;;;;;;18.75;53.22;99875.44;5009665;28;98379;-81
2022/06/21 05:24:35;;;;;;;10.57;9.40;;;;;;;18.83;52.67;99871.38;5025732;28;96846;-81
2022/06/21 05:27:26;;;;;;;10.10;9.30;;;;;;;18.71;52.19;99835.91;5010117;28;98439;-82
2022/06/21 05:30:03;;;;;;;10.10;9.05;;;;;;;18.99;52.34;99862.13;5012232;28;97457;-85
2022/06/21 05:32:34;;;;;;;10.77;9.70;;;;;;;19.15;52.07;99851.16;4998818;28;97941;-84
2022/06/21 05:35:07;;;;;;;10.48;9.50;;;;;;;19.26;51.66;99841.47;5013042;28;96879;-84
2022/06/21 05:37:47;;;;;;;10.02;9.23;;;;;;;19.34;51.63;99831.94;4995697;28;101586;-86
2022/06/21 05:40:19;;;;;;;10.45;9.55;;;;;;;19.53;50.98;99852.63;5012381;28;98559;-89
2022/06/21 05:42:44;;;;;;;9.93;8.93;;;;;;;19.59;50.64;99843.31;4998276;28;96860;-76
2022/06/21 05:45:13;;;;;;;9.40;8.77;;;;;;;19.79;50.56;99852.44;5012929;28;96885;-77
2022/06/21 05:47:45;;;;;;;10.13;9.23;;;;;;;19.83;50.37;99859.19;5025762;28;98115;-77
2022/06/21 05:50:19;;;;;;;9.40;8.55;;;;;;;19.89;49.82;99859.53;5012711;28;98179;-76
2022/06/21 05:52:52;;;;;;;9.68;8.98;;;;;;;19.96;49.71;99889.22;5019968;28;96673;-79
2022/06/21 05:55:27;;;;;;;10.95;9.95;;;;;;;20.00;49.59;99895.97;5013925;28;96984;-81
2022/06/21 05:57:56;;;;;;;10.40;9.20;;;;;;;19.85;48.91;99876.75;5005077;28;101522;-80
2022/06/21 06:00:29;;;;;;;9.88;9.07;;;;;;;19.88;49.33;99889.81;4983785;28;101657;-80
2022/06/21 06:03:01;;;;;;;14.02;9.73;;;;;;;20.01;48.96;99886.16;4987164;28;98303;-80
2022/06/21 06:05:31;;;;;;;11.40;9.30;;;;;;;19.95;49.36;99884.84;5005819;28;97151;-81
2022/06/21 06:08:04;;;;;;;10.67;9.70;;;;;;;19.95;49.46;99881.34;5015268;28;98407;-80
2022/06/21 06:10:31;;;;;;;10.20;9.50;;;;;;;19.82;48.99;99858.34;4994580;28;101144;-80
2022/06/21 06:13:00;;;;;;;17.00;10.85;;;;;;;20.08;48.70;99876.72;5009598;28;96926;-80
2022/06/21 06:16:02;;;;;;;9.88;9.18;;;;;;;20.23;48.40;99895.94;5004377;28;96769;-80
2022/06/21 06:18:40;;;;;;;9.93;9.07;;;;;;;20.35;47.95;99884.28;4994075;28;100682;-80
2022/06/21 06:21:20;;;;;;;9.70;9.00;;;;;;;20.20;48.07;99886.38;5013757;28;97405;-80
2022/06/21 06:23:48;;;;;;;9.20;8.60;;;;;;;20.23;48.01;99885.28;5011458;28;97458;-80
2022/06/21 06:26:16;;;;;;;10.15;9.32;;;;;;;20.06;47.97;99879.50;5013976;28;98512;-80
2022/06/21 06:28:47;;;;;;;9.93;8.88;;;;;;;20.15;48.50;99885.06;5010915;28;98086;-80
2022/06/21 06:31:30;;;;;;;9.98;9.00;;;;;;;20.43;47.85;99891.66;5017376;28;97574;-80
2022/06/21 06:34:01;;;;;;;9.63;9.00;;;;;;;20.98;45.96;99889.78;5026008;28;96700;-80
2022/06/21 06:36:35;;;;;;;10.20;9.23;;;;;;;22.11;44.12;99888.00;5027030;28;98435;-80
2022/06/21 06:39:02;;;;;;;10.27;9.27;;;;;;;21.48;45.33;99901.50;5006745;28;98023;-85
2022/06/21 06:41:33;;;;;;;11.00;8.90;;;;;;;21.39;45.11;99899.63;5011436;28;101186;-85
2022/06/21 06:44:02;;;;;;;11.10;10.18;;;;;;;21.78;43.96;99899.81;4995638;28;98081;-80
2022/06/21 06:46:40;;;;;;;12.55;11.32;;;;;;;22.59;42.61;99883.72;5022903;28;97410;-80
2022/06/21 06:49:17;;;;;;;12.57;11.65;;;;;;;22.77;42.26;99894.56;5008877;28;98409;-80
2022/06/21 06:51:47;;;;;;;8.10;7.60;;;;;;;22.88;42.25;99897.09;5001014;28;100058;-82
2022/06/21 06:54:24;;;;;;;10.45;9.63;;;;;;;22.38;42.96;99902.56;4996491;28;97218;-81
2022/06/21 06:57:08;;;;;;;10.77;9.93;;;;;;;21.89;43.85;99899.72;5003148;28;97311;-82
2022/06/21 06:59:35;;;;;;;10.68;9.60;;;;;;;21.85;44.08;99908.16;5001876;28;101455;-81
2022/06/21 07:02:21;;;;;;;10.00;9.20;;;;;;;21.55;44.36;99898.31;5009219;28;100041;-81
2022/06/21 07:04:50;;;;;;;9.25;8.50;;;;;;;;;;5007801;28;96744;-82
2022/06/21 07:07:21;;;;;;;10.10;9.10;;;;;;;23.31;41.27;99905.69;5030434;28;96868;-77
2022/06/21 07:09:53;;;;;;;11.68;10.55;;;;;;;22.96;41.28;99905.31;5030485;28;97449;-78
2022/06/21 07:12:28;;;;;;;10.10;9.30;;;;;;;22.69;42.05;99899.78;5011097;28;101585;-79
2022/06/21 07:14:54;;;;;;;13.13;10.00;;;;;;;22.36;42.85;99905.38;5029145;28;97117;-77
2022/06/21 07:17:22;;;;;;;10.70;9.80;;;;;;;23.33;41.12;99907.25;5009864;28;97161;-79
2022/06/21 07:19:49;;;;;;;10.88;9.80;;;;;;;22.57;42.11;99902.59;5031162;28;97347;-81
2022/06/21 07:22:24;;;;;;;10.00;9.15;;;;;;;21.96;42.57;99889.34;5010258;28;101381;-80
2022/06/21 07:25:04;;;;;;;11.95;9.95;;;;;;;22.26;43.26;99920.56;5019464;28;97506;-80
2022/06/21 07:27:34;;;;;;;9.93;9.18;;;;;;;22.51;42.26;99910.31;5012808;28;97872;-79
2022/06/21 07:30:07;;;;;;;9.65;9.02;;;;;;;22.69;42.24;99899.78;4992190;28;101173;-78
2022/06/21 07:32:54;;;;;;;9.98;9.27;;;;;;;22.38;42.45;99914.09;5025645;28;101643;-81
2022/06/21 07:35:28;;;;;;;10.73;9.70;;;;;;;23.14;41.37;99904.59;5004112;28;97361;-80
2022/06/21 07:37:58;;;;;;;10.23;9.43;;;;;;;22.78;42.10;99904.31;5003300;28;97526;-80
2022/06/21 07:40:28;;;;;;;9.70;8.80;;;;;;;22.51;42.44;99913.84;4999512;28;98184;-80
2022/06/21 07:43:03;;;;;;;9.30;8.50;;;;;;;22.40;42.91;99918.47;5009859;28;98616;-80
2022/06/21 07:45:42;;;;;;;10.43;9.43;;;;;;;22.47;42.79;99925.81;4989838;28;97264;-80
2022/06/21 07:48:19;;;;;;;9.80;9.20;;;;;;;22.67;42.18;99907.13;5010214;28;97190;-81
2022/06/21 07:50:46;;;;;;;12.10;9.00;;;;;;;22.37;42.68;99922.28;5002922;28;100999;-79
2022/06/21 07:53:24;;;;;;;11.27;9.02;;;;;;;22.40;42.79;99929.16;4998833;28;102106;-81
2022/06/21 07:56:14;;;;;;;8.85;8.25;;;;;;;22.60;42.59;99918.38;4991213;28;97267;-81
2022/06/21 07:58:52;;;;;;;9.90;8.88;;;;;;;23.21;41.08;99917.28;5022437;28;96862;-83
2022/06/21 08:07:32;;;;;;;10.32;9.55;;;;;;;24.80;38.85;99919.81;5020869;28;96915;-78
2022/06/21 08:10:03;;;;;;;9.68;8.80;;;;;;;26.02;35.88;99894.84;4995450;28;96980;-79
2022/06/21 08:12:29;;;;;;;9.50;8.73;;;;;;;26.74;35.30;99907.84;5009587;28;98744;-79
2022/06/21 08:14:54;;;;;;;9.50;8.85;;;;;;;27.45;33.60;99915.22;4997491;28;101293;-80
2022/06/21 08:17:42;;;;;;;9.90;9.30;;;;;;;28.10;32.48;99921.47;5024354;28;96796;-79
2022/06/21 08:20:12;;;;;;;11.73;10.38;;;;;;;27.86;32.71;99922.41;5011597;28;97315;-79
2022/06/21 08:22:43;;;;;;;11.18;10.13;;;;;;;28.65;31.85;99910.59;5027941;28;97525;-79
2022/06/21 08:25:30;;;;;;;10.82;9.90;;;;;;;27.74;32.33;99906.56;5019595;28;97995;-79
2022/06/21 08:28:23;;;;;;;10.30;9.60;;;;;;;27.45;33.29;99904.44;5003964;28;97024;-80
2022/06/21 08:31:22;;;;;;;10.35;9.55;;;;;;;27.91;32.71;99917.34;4988777;28;97082;-79
2022/06/21 08:34:01;;;;;;;10.40;9.60;;;;;;;28.41;32.17;99914.25;5034220;27;101692;-81
2022/06/21 08:36:56;;;;;;;10.52;9.68;;;;;;;27.20;33.47;99917.13;5013098;28;97512;-80
2022/06/21 08:39:27;;;;;;;9.45;8.85;;;;;;;27.58;33.30;99916.53;5008189;28;96929;-81
2022/06/21 08:42:17;;;;;;;9.88;9.10;;;;;;;27.70;32.85;99925.97;5014904;28;96847;-82
2022/06/21 08:48:21;;;;;;;9.48;8.88;;;;;;;27.50;32.73;99917.44;5017199;28;101520;-81
2022/06/21 08:51:19;;;;;;;10.10;9.15;;;;;;;27.07;32.76;99928.38;5017673;28;96795;-82
2022/06/21 08:54:08;;;;;;;9.95;9.00;;;;;;;27.63;32.90;99924.97;5038490;27;97159;-81
2022/06/21 08:56:49;;;;;;;9.43;8.60;;;;;;;28.18;31.98;99929.53;5023539;28;98213;-81
2022/06/21 08:59:23;;;;;;;9.75;9.00;;;;;;;27.40;32.93;99925.72;5006010;28;101379;-82
2022/06/21 09:02:06;;;;;;;8.90;8.20;;;;;;;27.31;32.81;99927.56;5033286;27;96794;-81
2022/06/21 09:04:45;;;;;;;10.02;9.15;;;;;;;26.78;33.56;99928.00;5023236;28;96839;-82
2022/06/21 09:07:32;;;;;;;9.30;8.50;;;;;;;26.18;33.91;99939.78;5022518;28;98125;-80
2022/06/21 09:10:29;;;;;;;10.70;8.57;;;;;;;25.70;34.50;99933.13;5017183;28;101239;-81
2022/06/21 09:13:04;;;;;;;8.80;8.25;;;;;;;25.09;35.16;99934.84;5031386;28;96852;-81
2022/06/21 09:16:00;;;;;;;9.25;8.65;;;;;;;25.55;35.25;99919.44;5023513;28;96809;-82
2022/06/21 09:18:45;;;;;;;8.85;8.10;;;;;;;26.42;34.24;99937.16;5025827;28;97450;-81
2022/06/21 09:21:27;;;;;;;9.25;8.45;;;;;;;26.03;34.07;99947.59;5013347;28;100822;-79
2022/06/21 09:23:55;;;;;;;9.27;8.48;;;;;;;26.08;33.71;99937.19;5007493;28;96985;-74
2022/06/21 09:26:37;;;;;;;8.38;7.88;;;;;;;26.46;33.61;99934.16;5015478;28;97389;-74
2022/06/21 09:29:23;;;;;;;9.38;8.48;;;;;;;26.29;33.90;99926.00;5010268;28;101219;-74
2022/06/21 09:31:50;;;;;;;9.63;8.82;;;;;;;26.52;33.64;99937.03;5030925;28;98048;-74
2022/06/21 09:34:41;;;;;;;9.93;8.80;;;;;;;25.83;33.87;99935.41;5003740;28;96828;-74
2022/06/21 09:37:15;;;;;;;15.75;10.43;;;;;;;25.53;35.63;99937.53;5014950;28;97092;-75
2022/06/21 09:39:58;;;;;;;9.77;9.02;;;;;;;24.95;37.52;99946.97;5027033;28;97987;-75
2022/06/21 09:42:42;;;;;;;10.55;9.55;;;;;;;25.05;37.68;99936.16;5032825;28;97865;-72
2022/06/21 09:45:22;;;;;;;10.02;9.10;;;;;;;25.43;39.89;99952.94;5006664;28;97210;-78
2022/06/21 09:48:24;;;;;;;9.27;8.70;;;;;;;25.49;37.95;99944.25;5014863;28;96821;-75
2022/06/21 09:50:52;;;;;;;9.75;8.88;;;;;;;25.75;37.85;99936.19;5019719;28;97518;-75
2022/06/21 09:53:27;;;;;;;11.25;8.90;;;;;;;25.82;36.76;99934.56;5010218;28;101402;-81
2022/06/21 09:55:55;;;;;;;9.82;8.90;;;;;;;25.80;35.58;99939.22;5023813;28;97276;-85
2022/06/21 09:58:41;;;;;;;9.63;8.95;;;;;;;25.68;35.33;99941.31;5011417;28;97290;-83
2022/06/21 10:01:16;;;;;;;9.90;9.10;;;;;;;25.43;35.55;99951.09;5004041;28;98074;-84
2022/06/21 10:03:55;;;;;;;9.48;8.85;;;;;;;25.30;35.81;99934.53;5032280;27;97834;-84
2022/06/21 10:06:28;;;;;;;9.85;8.75;;;;;;;25.48;35.79;99932.66;5015438;28;97398;-84
2022/06/21 10:09:23;;;;;;;9.15;8.57;;;;;;;25.46;35.64;99941.88;5031645;28;96985;-82
2022/06/21 10:12:01;;;;;;;9.35;8.65;;;;;;;25.41;35.90;99936.13;4993737;28;101268;-83
2022/06/21 10:14:57;;;;;;;9.40;8.45;;;;;;;25.30;35.51;99948.78;5013718;28;99994;-83
2022/06/21 10:17:57;;;;;;;9.13;8.43;;;;;;;25.27;35.77;99946.41;5030027;28;97320;-83
2022/06/21 10:20:34;;;;;;;9.20;8.55;;;;;;;25.15;35.76;99947.69;5010016;28;97243;-82
2022/06/21 10:23:37;;;;;;;9.40;8.70;;;;;;;25.07;35.31;99943.06;5026722;28;101311;-80
2022/06/21 10:26:18;;;;;;;9.00;8.30;;;;;;;25.05;35.88;99947.75;5013000;28;101686;-82
2022/06/21 10:28:58;;;;;;;;;;;;;;;24.90;36.21;99948.41;5021057;27;97086;-82
2022/06/21 10:31:45;;;;;;;9.67;8.70;;;;;;;25.01;36.43;99943.66;5030547;28;97021;-84
2022/06/21 10:34:25;;;;;;;9.55;8.70;;;;;;;25.20;36.41;99944.53;5008291;28;101380;-83
2022/06/21 10:37:12;;;;;;;10.18;9.23;;;;;;;25.30;36.16;99943.41;5010172;28;100964;-82
2022/06/21 10:39:59;;;;;;;9.10;8.38;;;;;;;25.29;36.17;99946.28;5024027;28;97111;-81
2022/06/21 10:42:49;;;;;;;10.15;9.35;;;;;;;25.28;35.63;99952.66;5024006;28;98508;-82
2022/06/21 10:45:37;;;;;;;9.25;8.38;;;;;;;25.07;36.14;99928.78;5029097;28;101614;-82
2022/06/21 10:48:23;;;;;;;11.95;8.95;;;;;;;24.90;36.52;99917.06;5013951;28;97991;-79
2022/06/21 10:51:14;;;;;;;9.23;8.48;;;;;;;25.06;36.28;99941.34;5015816;28;98231;-81
2022/06/21 10:53:58;;;;;;;9.40;8.60;;;;;;;24.97;35.78;99936.09;4991897;28;98463;-82
2022/06/21 11:01:16;;;;;;;8.98;8.18;;;;;;;24.83;35.75;99956.25;5024674;28;101536;-81
2022/06/21 11:02:28;;;;;;;9.48;8.70;;;;;;;24.79;35.56;99958.41;5026075;28;97291;-83
2022/06/21 11:05:16;;;;;;;8.80;8.10;;;;;;;24.79;35.46;99954.88;5008683;28;98183;-81
2022/06/21 11:08:09;;;;;;;9.35;8.55;;;;;;;24.75;35.83;99962.38;5020668;28;101741;-81
2022/06/21 11:10:49;;;;;;;8.90;8.18;;;;;;;24.69;35.88;99952.25;5026259;28;98435;-85
2022/06/21 11:13:16;;;;;;;8.88;8.10;;;;;;;24.73;36.17;99947.44;5008697;28;96886;-81
2022/06/21 11:15:48;;;;;;;8.98;8.23;;;;;;;24.76;36.16;99949.81;4992724;28;96953;-80
2022/06/21 11:18:31;;;;;;;9.40;8.48;;;;;;;24.78;36.53;99951.34;5018365;28;101111;-78
2022/06/21 11:21:29;;;;;;;9.68;8.88;;;;;;;24.87;36.05;99946.91;5008598;28;101095;-79
2022/06/21 11:24:11;;;;;;;8.80;8.10;;;;;;;24.71;35.91;99931.47;4997147;28;97236;-78
2022/06/21 11:26:37;;;;;;;9.18;8.32;;;;;;;24.71;36.11;99950.25;4999750;28;97186;-78
2022/06/21 11:29:17;;;;;;;9.20;8.40;;;;;;;24.69;36.24;99946.88;5023392;28;97654;-83
2022/06/21 11:32:03;;;;;;;8.85;8.02;;;;;;;24.65;36.09;99941.97;4994299;28;101136;-78
2022/06/21 11:34:46;;;;;;;8.90;8.20;;;;;;;24.58;36.24;99947.09;4991287;28;97092;-78
2022/06/21 11:37:19;;;;;;;19.15;10.55;;;;;;;24.55;36.22;99950.06;5031172;28;97145;-81
2022/06/21 11:39:53;;;;;;;21.23;11.02;;;;;;;24.56;36.59;99952.63;5025898;28;98125;-78
2022/06/21 11:42:36;;;;;;;16.70;9.43;;;;;;;24.61;36.55;99949.50;5008927;28;101245;-79
2022/06/21 11:45:14;;;;;;;11.00;9.98;;;;;;;24.70;36.67;99953.94;5036457;27;96887;-86
2022/06/21 11:47:58;;;;;;;32.33;11.65;;;;;;;24.83;37.05;99958.94;5012683;28;98217;-83
2022/06/21 11:50:29;;;;;;;11.98;8.90;;;;;;;24.74;36.86;99944.59;5027163;28;97970;-83
2022/06/21 11:53:39;;;;;;;9.38;8.50;;;;;;;24.63;36.58;99948.31;4998570;28;102616;-84
2022/06/21 11:56:41;;;;;;;9.18;8.32;;;;;;;24.67;36.78;99950.69;4966626;28;96727;-83
2022/06/21 11:59:18;;;;;;;9.23;8.63;;;;;;;24.66;36.75;99949.88;5028887;28;97073;-82
2022/06/21 12:01:52;;;;;;;9.65;8.77;;;;;;;24.52;36.96;99931.59;5012321;28;101513;-79
2022/06/21 12:04:37;;;;;;;9.25;8.40;;;;;;;24.64;36.80;99949.19;5005457;28;101349;-83
2022/06/21 12:07:12;;;;;;;9.50;8.70;;;;;;;24.57;36.90;99946.25;5024105;28;97690;-79
2022/06/21 12:09:37;;;;;;;8.48;7.85;;;;;;;24.57;36.82;99954.28;5018930;28;97324;-74
2022/06/21 12:12:34;;;;;;;8.82;8.23;;;;;;;24.54;36.64;99951.09;5028629;28;101696;-78
2022/06/21 12:15:33;;;;;;;8.32;7.72;;;;;;;24.55;36.87;99950.94;5010732;27;101171;-77
2022/06/21 12:18:15;;;;;;;9.07;8.35;;;;;;;24.46;37.01;99932.22;5033246;28;97123;-74
2022/06/21 12:21:00;;;;;;;9.02;8.43;;;;;;;24.65;37.00;99955.41;5018831;28;97144;-74
2022/06/21 12:23:41;;;;;;;12.55;9.18;;;;;;;24.64;36.89;99949.19;5036565;28;98178;-79
2022/06/21 12:26:10;;;;;;;9.00;8.40;;;;;;;24.73;36.69;99944.75;5033507;28;98563;-83